Time;durP1;ratioP1;P1;durP2;ratioP2;P2;SDS_P1;SDS_P2;PMS_P1;PMS_P2;Temp;Humidity;BMP_temperature;BMP_pressure;BME280_temperature;BME280_humidity;BME280_pressure;Samples;Min_cycle;Max_cycle;Signal;HPM_P1;HPM_P2
2023/06/28 00:02:10;;;;;;;1.95;0.00;;;15.60;99.90;;;;;;5037510;28;20093;-78
2023/06/28 00:04:36;;;;;;;2.75;0.10;;;15.70;99.90;;;;;;5037446;28;20014;-78
2023/06/28 00:07:02;;;;;;;4.47;0.03;;;15.60;99.90;;;;;;5036648;28;20445;-77
2023/06/28 00:09:28;;;;;;;0.22;0.00;;;15.60;99.90;;;;;;5037105;28;20087;-78
2023/06/28 00:11:53;;;;;;;1.35;0.15;;;15.60;99.90;;;;;;5037827;28;20032;-78
2023/06/28 00:14:19;;;;;;;1.92;0.10;;;;;;;;;;5060647;23;20450;-74
2023/06/28 00:16:45;;;;;;;3.60;0.50;;;15.60;99.90;;;;;;5054498;28;20028;-74
2023/06/28 00:19:10;;;;;;;0.85;0.00;;;15.60;99.90;;;;;;5054451;28;20032;-74
2023/06/28 00:21:36;;;;;;;5.28;0.47;;;15.60;99.90;;;;;;5054494;28;20064;-74
2023/06/28 00:24:01;;;;;;;3.58;0.10;;;15.70;99.90;;;;;;5040424;28;20033;-74
2023/06/28 00:26:27;;;;;;;1.20;0.10;;;15.70;99.90;;;;;;5034327;28;20033;-75
2023/06/28 00:28:52;;;;;;;1.02;0.10;;;15.70;99.90;;;;;;5034509;28;20496;-74
2023/06/28 00:31:18;;;;;;;1.98;0.05;;;15.80;99.90;;;;;;5034418;28;20029;-74
2023/06/28 00:33:43;;;;;;;1.95;0.20;;;16.40;99.90;;;;;;5035512;28;20029;-74
2023/06/28 00:36:09;;;;;;;1.23;0.10;;;15.80;99.90;;;;;;5033694;28;20095;-74
2023/06/28 00:38:35;;;;;;;3.25;0.40;;;15.80;99.90;;;;;;5035375;28;20025;-74
2023/06/28 00:41:00;;;;;;;4.05;0.57;;;15.90;99.90;;;;;;5035916;28;20017;-74
2023/06/28 00:43:26;;;;;;;4.18;0.10;;;15.90;99.90;;;;;;5035326;28;20456;-74
2023/06/28 00:45:52;;;;;;;5.75;0.60;;;15.90;99.90;;;;;;5034044;28;20045;-74
2023/06/28 00:48:18;;;;;;;1.90;0.20;;;15.90;99.90;;;;;;5035764;28;20473;-74
2023/06/28 00:50:45;;;;;;;3.38;0.20;;;15.90;99.90;;;;;;5035124;28;20083;-74
2023/06/28 00:53:15;;;;;;;0.80;0.17;;;15.90;99.90;;;;;;5033660;28;20500;-74
2023/06/28 00:55:41;;;;;;;1.65;0.70;;;15.90;99.90;;;;;;5033711;28;20032;-74
2023/06/28 00:58:07;;;;;;;1.85;0.22;;;15.90;99.90;;;;;;5033967;28;20029;-74
2023/06/28 01:00:32;;;;;;;1.58;0.10;;;15.90;99.90;;;;;;5035089;28;20049;-74
2023/06/28 01:03:00;;;;;;;2.83;0.35;;;16.20;99.90;;;;;;5034974;28;20013;-73
2023/06/28 01:05:26;;;;;;;3.38;0.32;;;;;;;;;;5034720;28;20100;-73
2023/06/28 01:07:53;;;;;;;1.15;0.22;;;15.90;99.90;;;;;;5035271;28;20477;-74
2023/06/28 01:10:19;;;;;;;6.03;0.68;;;15.90;99.90;;;;;;5034879;28;20061;-73
2023/06/28 01:12:47;;;;;;;2.70;0.40;;;15.90;99.90;;;;;;5033126;28;20029;-73
2023/06/28 01:15:13;;;;;;;2.95;0.20;;;15.90;99.90;;;;;;5034743;28;20365;-73
2023/06/28 01:17:42;;;;;;;3.85;0.52;;;15.90;99.90;;;;;;5034677;28;20102;-73
2023/06/28 01:20:08;;;;;;;;;;;15.90;99.90;;;;;;5035098;28;20028;-73
2023/06/28 01:22:43;;;;;;;1.55;0.57;;;16.00;99.90;;;;;;5033541;28;19905;-73
2023/06/28 01:25:10;;;;;;;3.60;0.25;;;16.00;99.90;;;;;;5034587;28;20021;-73
2023/06/28 01:27:37;;;;;;;1.65;0.47;;;16.00;99.90;;;;;;5034740;28;20442;-73
2023/06/28 01:30:05;;;;;;;1.38;0.15;;;16.00;99.90;;;;;;5034646;28;20100;-73
2023/06/28 01:32:30;;;;;;;0.40;0.30;;;16.00;99.90;;;;;;5034546;28;20485;-73
2023/06/28 01:34:56;;;;;;;2.95;0.30;;;16.00;99.90;;;;;;5034605;28;20038;-73
2023/06/28 01:37:22;;;;;;;7.10;0.50;;;16.00;99.90;;;;;;5034478;28;20029;-73
2023/06/28 01:39:48;;;;;;;4.45;0.30;;;16.00;99.90;;;;;;5034548;28;20022;-73
2023/06/28 01:42:15;;;;;;;3.53;0.68;;;15.90;99.90;;;;;;5034414;28;20025;-73
2023/06/28 01:44:41;;;;;;;2.38;0.43;;;16.00;99.90;;;;;;5034453;28;20072;-74
2023/06/28 01:47:06;;;;;;;2.38;0.40;;;16.00;99.90;;;;;;5033779;28;20029;-73
2023/06/28 01:49:33;;;;;;;2.45;0.40;;;15.90;99.90;;;;;;5034379;28;20029;-74
2023/06/28 01:51:58;;;;;;;0.80;0.28;;;15.90;99.90;;;;;;5034292;28;20017;-74
2023/06/28 01:54:26;;;;;;;2.75;0.10;;;15.80;99.90;;;;;;5034198;28;20115;-74
2023/06/28 01:56:52;;;;;;;2.40;0.30;;;15.90;99.90;;;;;;5034818;28;20044;-73
2023/06/28 01:59:17;;;;;;;3.65;0.13;;;15.90;99.90;;;;;;5034214;28;20025;-74
2023/06/28 02:01:44;;;;;;;1.00;0.20;;;;;;;;;;5034055;28;20026;-73
2023/06/28 02:04:10;;;;;;;4.03;0.28;;;15.90;99.90;;;;;;5033955;28;20024;-73
2023/06/28 02:06:39;;;;;;;5.13;0.60;;;15.90;99.90;;;;;;5034368;28;20032;-73
2023/06/28 02:09:05;;;;;;;2.38;0.43;;;15.80;99.90;;;;;;5034021;28;20017;-73
2023/06/28 02:11:30;;;;;;;0.68;0.30;;;15.90;99.90;;;;;;5033938;28;20105;-74
2023/06/28 02:13:56;;;;;;;2.78;0.30;;;15.90;99.90;;;;;;5033643;28;20036;-73
2023/06/28 02:16:22;;;;;;;3.47;0.30;;;15.90;99.90;;;;;;5033598;28;20025;-73
2023/06/28 02:18:49;;;;;;;1.65;0.20;;;16.10;99.90;;;;;;5034270;28;20026;-72
2023/06/28 02:21:16;;;;;;;3.67;0.63;;;15.90;99.90;;;;;;5033770;28;20374;-73
2023/06/28 02:23:41;;;;;;;3.28;0.82;;;15.90;99.90;;;;;;5033719;28;20021;-73
2023/06/28 02:26:07;;;;;;;5.72;0.10;;;15.90;99.90;;;;;;5034247;28;20022;-73
2023/06/28 02:28:32;;;;;;;4.40;0.20;;;15.80;99.90;;;;;;5033705;28;20025;-73
2023/06/28 02:30:58;;;;;;;3.03;0.22;;;15.80;99.90;;;;;;5033680;28;20037;-73
2023/06/28 02:33:23;;;;;;;7.63;0.68;;;15.80;99.90;;;;;;5033508;28;20080;-73
2023/06/28 02:35:49;;;;;;;2.35;0.20;;;15.80;99.90;;;;;;5034092;28;20026;-73
2023/06/28 02:38:14;;;;;;;1.33;0.40;;;15.70;99.90;;;;;;5033496;28;20108;-74
2023/06/28 02:40:40;;;;;;;4.90;0.20;;;15.70;99.90;;;;;;5032075;28;20076;-73
2023/06/28 02:43:05;;;;;;;1.65;0.22;;;15.70;99.90;;;;;;5032175;28;20083;-73
2023/06/28 02:45:31;;;;;;;2.63;0.30;;;15.70;99.90;;;;;;5032095;28;20077;-73
2023/06/28 02:47:56;;;;;;;3.35;0.20;;;15.70;99.90;;;;;;5033388;28;20026;-73
2023/06/28 02:50:24;;;;;;;3.45;0.20;;;15.70;99.90;;;;;;5033266;28;20068;-73
2023/06/28 02:52:49;;;;;;;1.27;0.10;;;15.60;99.90;;;;;;5033220;28;20025;-73
2023/06/28 02:55:15;;;;;;;3.58;0.20;;;15.60;99.90;;;;;;5033098;28;20028;-73
2023/06/28 02:57:41;;;;;;;3.05;0.40;;;15.60;99.90;;;;;;5034675;28;20026;-73
2023/06/28 03:00:07;;;;;;;6.47;0.38;;;15.60;99.90;;;;;;5039947;28;20101;-73
2023/06/28 03:02:33;;;;;;;2.88;0.43;;;15.60;99.90;;;;;;5039768;28;20039;-75
2023/06/28 03:04:59;;;;;;;1.45;0.28;;;15.70;99.90;;;;;;5039825;28;20030;-73
2023/06/28 03:07:24;;;;;;;2.95;0.40;;;15.50;99.90;;;;;;5038576;28;20029;-73
2023/06/28 03:09:50;;;;;;;3.92;0.55;;;15.50;99.90;;;;;;5040401;28;20026;-73
2023/06/28 03:12:16;;;;;;;2.17;0.20;;;15.50;99.90;;;;;;5039821;28;20036;-73
2023/06/28 03:14:43;;;;;;;1.88;0.50;;;15.50;99.90;;;;;;5038317;28;20535;-73
2023/06/28 03:17:09;;;;;;;4.15;0.10;;;15.40;99.90;;;;;;5039792;28;20026;-74
2023/06/28 03:19:35;;;;;;;2.63;0.20;;;15.40;99.90;;;;;;5039758;28;20417;-73
2023/06/28 03:22:01;;;;;;;4.75;0.40;;;15.50;99.90;;;;;;5039794;28;20014;-73
2023/06/28 03:24:26;;;;;;;2.80;0.13;;;15.50;99.90;;;;;;5039431;28;20032;-73
2023/06/28 03:26:52;;;;;;;2.25;0.77;;;15.40;99.90;;;;;;5039580;28;20481;-73
2023/06/28 03:29:17;;;;;;;1.42;0.30;;;15.50;99.90;;;;;;5039688;28;20030;-73
2023/06/28 03:31:43;;;;;;;1.88;0.25;;;15.50;99.90;;;;;;5039631;28;20480;-73
2023/06/28 03:34:09;;;;;;;2.67;0.25;;;15.50;99.90;;;;;;5039400;28;20031;-73
2023/06/28 03:36:34;;;;;;;4.00;1.05;;;15.50;99.90;;;;;;5039936;28;20037;-73
2023/06/28 03:39:00;;;;;;;3.80;0.68;;;15.50;99.90;;;;;;5039648;28;20043;-73
2023/06/28 03:41:27;;;;;;;2.25;0.68;;;15.50;99.90;;;;;;5039922;28;20031;-73
2023/06/28 03:43:52;;;;;;;3.30;0.82;;;15.50;99.90;;;;;;5038146;28;20028;-73
2023/06/28 03:46:18;;;;;;;3.78;0.45;;;15.50;99.90;;;;;;5039494;28;20447;-73
2023/06/28 03:48:43;;;;;;;4.90;0.40;;;15.50;99.90;;;;;;5039412;28;20037;-73
2023/06/28 03:51:09;;;;;;;8.15;0.55;;;15.50;99.90;;;;;;5038259;28;20021;-72
2023/06/28 03:53:35;;;;;;;2.78;0.80;;;15.60;99.90;;;;;;5039222;28;20034;-72
2023/06/28 03:56:01;;;;;;;3.58;1.27;;;15.60;99.90;;;;;;5039184;28;20029;-72
2023/06/28 03:58:26;;;;;;;5.40;0.50;;;15.60;99.90;;;;;;5039244;28;20048;-72
2023/06/28 04:00:52;;;;;;;3.83;0.90;;;15.60;99.90;;;;;;5039811;28;20025;-73
2023/06/28 04:03:18;;;;;;;5.28;1.10;;;15.60;99.90;;;;;;5037933;28;20026;-73
2023/06/28 04:05:44;;;;;;;6.70;1.33;;;15.60;99.90;;;;;;5039206;28;20026;-73
2023/06/28 04:08:11;;;;;;;2.33;0.90;;;15.60;99.90;;;;;;5039280;28;20473;-73
2023/06/28 04:10:38;;;;;;;4.97;1.40;;;15.60;99.90;;;;;;5034970;28;20544;-73
2023/06/28 04:13:04;;;;;;;3.22;1.00;;;15.60;99.90;;;;;;5035978;28;20067;-73
2023/06/28 04:15:29;;;;;;;5.75;1.48;;;15.60;99.90;;;;;;5036524;28;20473;-73
2023/06/28 04:17:55;;;;;;;3.10;0.88;;;15.60;99.90;;;;;;5034746;28;20021;-73
2023/06/28 04:20:20;;;;;;;3.78;1.52;;;15.60;99.90;;;;;;5036669;28;20021;-74
2023/06/28 04:22:46;;;;;;;5.90;0.90;;;15.60;99.90;;;;;;5036205;28;20026;-73
2023/06/28 04:25:12;;;;;;;8.18;1.02;;;15.50;99.90;;;;;;5035972;28;20021;-73
2023/06/28 04:27:37;;;;;;;2.95;1.33;;;15.50;99.90;;;;;;5034626;28;20029;-73
2023/06/28 04:30:03;;;;;;;7.55;1.70;;;15.50;99.90;;;;;;5035898;28;20026;-73
2023/06/28 04:32:29;;;;;;;3.70;0.90;;;15.60;99.90;;;;;;5035751;28;20570;-73
2023/06/28 04:34:59;;;;;;;8.48;1.23;;;15.60;99.90;;;;;;5034301;28;20063;-73
2023/06/28 04:37:31;;;;;;;5.55;0.80;;;15.60;99.90;;;;;;5035579;28;20415;-73
2023/06/28 04:40:00;;;;;;;7.07;1.63;;;15.70;99.90;;;;;;5035985;28;20022;-72
2023/06/28 04:42:26;;;;;;;3.53;1.50;;;15.70;99.90;;;;;;5034152;28;20021;-72
2023/06/28 04:44:54;;;;;;;5.25;1.52;;;15.70;99.90;;;;;;5035522;28;20101;-72
2023/06/28 04:47:20;;;;;;;3.97;0.98;;;15.70;99.90;;;;;;5035468;28;20026;-73
2023/06/28 04:49:47;;;;;;;4.97;1.90;;;15.80;99.90;;;;;;5035398;28;20108;-72
2023/06/28 04:52:18;;;;;;;7.65;1.48;;;15.80;99.90;;;;;;5035241;28;20021;-73
2023/06/28 04:54:44;;;;;;;4.25;1.73;;;15.80;99.90;;;;;;5035241;28;20063;-72
2023/06/28 04:57:10;;;;;;;4.45;1.63;;;15.90;99.90;;;;;;5035584;28;20025;-72
2023/06/28 04:59:37;;;;;;;5.88;1.90;;;16.10;99.90;;;;;;5033861;28;20037;-72
2023/06/28 05:02:05;;;;;;;6.15;0.95;;;15.90;99.90;;;;;;5035556;28;20024;-72
2023/06/28 05:04:33;;;;;;;3.55;1.40;;;15.90;99.90;;;;;;5035153;28;20017;-72
2023/06/28 05:07:04;;;;;;;8.35;2.08;;;16.00;99.90;;;;;;5035043;28;20431;-72
2023/06/28 05:09:33;;;;;;;7.70;1.45;;;16.00;99.90;;;;;;5033766;28;20048;-72
2023/06/28 05:12:00;;;;;;;9.43;1.80;;;16.00;99.90;;;;;;5034940;28;20433;-72
2023/06/28 05:14:27;;;;;;;8.05;2.08;;;16.00;99.90;;;;;;5034559;28;20112;-72
2023/06/28 05:16:52;;;;;;;6.35;1.38;;;16.10;99.90;;;;;;5034699;28;20477;-72
2023/06/28 05:19:18;;;;;;;5.90;1.45;;;16.10;99.90;;;;;;5033629;28;20049;-72
2023/06/28 05:21:44;;;;;;;4.80;1.70;;;16.10;99.90;;;;;;5032366;28;20124;-72
2023/06/28 05:24:10;;;;;;;5.55;1.38;;;17.00;99.90;;;;;;5034695;28;20434;-72
2023/06/28 05:26:35;;;;;;;8.02;1.73;;;16.50;99.90;;;;;;5033322;28;20485;-72
2023/06/28 05:29:01;;;;;;;4.70;1.77;;;16.20;99.90;;;;;;5034667;28;20036;-72
2023/06/28 05:31:26;;;;;;;2.75;1.02;;;16.10;99.90;;;;;;5034494;28;20025;-72
2023/06/28 05:33:52;;;;;;;6.13;1.40;;;16.30;99.90;;;;;;5033745;28;20033;-72
2023/06/28 05:36:22;;;;;;;5.97;1.88;;;16.50;99.90;;;;;;5034460;28;20036;-72
2023/06/28 05:38:47;;;;;;;3.45;1.65;;;16.30;99.90;;;;;;5034511;28;20096;-72
2023/06/28 05:41:15;;;;;;;4.55;1.77;;;16.20;99.90;;;;;;5034418;28;20056;-72
2023/06/28 05:43:45;;;;;;;9.02;2.13;;;16.30;99.90;;;;;;5034424;28;20428;-72
2023/06/28 05:46:11;;;;;;;6.47;2.03;;;16.30;99.90;;;;;;5034179;28;20033;-72
2023/06/28 05:48:37;;;;;;;10.48;2.10;;;16.30;99.90;;;;;;5034776;28;20075;-72
2023/06/28 05:51:02;;;;;;;11.45;2.17;;;16.20;99.90;;;;;;5034179;28;20104;-72
2023/06/28 05:53:29;;;;;;;8.10;2.17;;;16.20;99.90;;;;;;5034098;28;20104;-72
2023/06/28 05:55:55;;;;;;;3.53;1.95;;;16.90;99.90;;;;;;5034655;28;20384;-72
2023/06/28 05:58:21;;;;;;;5.65;2.28;;;16.30;99.90;;;;;;5034163;28;20392;-72
2023/06/28 06:00:47;;;;;;;7.28;1.77;;;16.30;99.90;;;;;;5033982;28;20018;-72
2023/06/28 06:03:12;;;;;;;6.38;2.13;;;16.40;99.90;;;;;;5033922;28;20078;-72
2023/06/28 06:05:38;;;;;;;5.95;1.85;;;16.60;99.90;;;;;;5033854;28;20036;-72
2023/06/28 06:08:04;;;;;;;8.25;2.00;;;17.20;99.90;;;;;;5033887;28;20481;-73
2023/06/28 06:10:30;;;;;;;14.23;2.70;;;16.50;99.90;;;;;;5033772;28;20541;-71
2023/06/28 06:12:56;;;;;;;11.57;2.33;;;16.50;99.90;;;;;;5033533;28;20112;-73
2023/06/28 06:15:22;;;;;;;7.50;2.63;;;16.60;99.90;;;;;;5033810;28;20025;-74
2023/06/28 06:17:47;;;;;;;6.53;1.85;;;16.50;99.90;;;;;;5033879;28;20018;-74
2023/06/28 06:20:15;;;;;;;8.40;2.42;;;16.60;99.90;;;;;;5033976;28;20087;-74
2023/06/28 06:22:41;;;;;;;6.65;2.10;;;16.60;99.90;;;;;;5033720;28;20053;-74
2023/06/28 06:25:07;;;;;;;4.40;1.70;;;16.60;99.90;;;;;;5033752;28;20054;-73
2023/06/28 06:27:33;;;;;;;7.20;2.80;;;16.60;99.90;;;;;;5033980;28;20021;-74
2023/06/28 06:29:58;;;;;;;10.27;2.67;;;16.60;99.90;;;;;;5032286;28;20485;-74
2023/06/28 06:32:24;;;;;;;7.65;2.40;;;16.70;99.90;;;;;;5032084;28;20397;-74
2023/06/28 06:34:49;;;;;;;7.18;2.22;;;16.70;99.90;;;;;;5032313;28;20083;-74
2023/06/28 06:37:15;;;;;;;9.98;3.53;;;16.70;99.90;;;;;;5033562;28;20026;-73
2023/06/28 06:39:42;;;;;;;7.70;3.30;;;16.80;99.90;;;;;;5034547;28;20063;-73
2023/06/28 06:42:08;;;;;;;8.10;2.45;;;16.80;99.90;;;;;;5033556;28;20017;-74
2023/06/28 06:44:34;;;;;;;7.35;2.20;;;16.70;99.90;;;;;;5033457;28;20017;-74
2023/06/28 06:46:59;;;;;;;8.40;2.45;;;16.90;99.90;;;;;;5033369;28;20037;-73
2023/06/28 06:49:25;;;;;;;8.63;1.90;;;16.90;99.90;;;;;;5033452;28;20033;-73
2023/06/28 06:51:50;;;;;;;10.52;2.60;;;16.90;99.90;;;;;;5032154;28;20034;-73
2023/06/28 06:54:16;;;;;;;4.65;2.05;;;16.90;99.90;;;;;;5033415;28;20026;-73
2023/06/28 06:56:41;;;;;;;7.88;2.53;;;16.90;99.90;;;;;;5033126;28;20025;-73
2023/06/28 06:59:07;;;;;;;7.68;2.80;;;16.90;99.90;;;;;;5031128;28;20025;-73
2023/06/28 07:01:34;;;;;;;9.35;2.40;;;16.90;99.90;;;;;;5033066;28;20021;-73
2023/06/28 07:04:00;;;;;;;6.78;2.40;;;16.90;99.90;;;;;;5032578;28;20049;-73
2023/06/28 07:06:25;;;;;;;6.47;2.53;;;16.90;99.90;;;;;;5031773;28;20192;-73
2023/06/28 07:08:51;;;;;;;7.95;2.58;;;16.90;99.90;;;;;;5032876;28;20029;-75
2023/06/28 07:11:16;;;;;;;7.75;2.45;;;16.90;99.90;;;;;;5033185;28;20385;-73
2023/06/28 07:13:42;;;;;;;7.50;2.20;;;16.90;99.90;;;;;;5032845;28;20025;-73
2023/06/28 07:16:08;;;;;;;6.65;2.25;;;17.00;99.90;;;;;;5032984;28;20088;-73
2023/06/28 07:18:33;;;;;;;6.22;2.53;;;17.10;99.90;;;;;;5032670;28;20021;-73
2023/06/28 07:20:59;;;;;;;7.10;2.90;;;17.10;99.90;;;;;;5033116;28;20014;-73
2023/06/28 07:23:24;;;;;;;7.57;2.42;;;17.10;99.90;;;;;;5032741;28;20528;-73
2023/06/28 07:25:50;;;;;;;7.10;2.50;;;17.10;99.90;;;;;;5030001;28;20113;-73
2023/06/28 07:28:16;;;;;;;6.20;2.28;;;17.10;99.90;;;;;;5032510;28;20033;-73
2023/06/28 07:31:00;;;;;;;10.77;2.67;;;17.20;99.90;;;;;;5032677;28;20120;-73
2023/06/28 07:33:26;;;;;;;8.68;3.08;;;17.20;99.90;;;;;;5032314;28;20048;-73
2023/06/28 07:35:52;;;;;;;9.95;2.75;;;17.30;99.90;;;;;;5032788;28;20033;-73
2023/06/28 07:38:19;;;;;;;5.47;1.90;;;17.40;99.90;;;;;;5032764;28;20473;-73
2023/06/28 07:40:45;;;;;;;5.15;2.38;;;17.50;99.90;;;;;;5032750;28;20097;-74
2023/06/28 07:43:12;;;;;;;4.78;2.15;;;17.50;99.90;;;;;;5031478;28;20053;-73
2023/06/28 07:45:37;;;;;;;9.02;2.20;;;17.50;99.90;;;;;;5034719;28;20025;-73
2023/06/28 07:48:06;;;;;;;4.47;2.25;;;17.40;99.90;;;;;;5036509;28;20025;-72
2023/06/28 07:50:32;;;;;;;8.02;2.92;;;17.40;99.90;;;;;;5036584;28;20435;-73
2023/06/28 07:52:58;;;;;;;8.73;2.30;;;17.40;99.90;;;;;;5036738;28;20017;-74
2023/06/28 07:55:23;;;;;;;12.82;3.95;;;17.40;99.90;;;;;;5036463;28;20068;-73
2023/06/28 07:57:49;;;;;;;8.23;2.58;;;17.40;99.90;;;;;;5036284;28;20493;-71
2023/06/28 08:00:15;;;;;;;9.00;2.25;;;17.30;99.90;;;;;;5036858;28;20029;-71
2023/06/28 08:02:41;;;;;;;8.07;3.00;;;17.40;99.90;;;;;;5034987;28;20024;-71
2023/06/28 08:05:07;;;;;;;8.73;3.00;;;17.40;99.90;;;;;;5035476;28;20025;-71
2023/06/28 08:07:34;;;;;;;6.18;2.50;;;17.50;99.90;;;;;;5034545;28;20022;-71
2023/06/28 08:09:59;;;;;;;8.70;2.80;;;17.60;99.90;;;;;;5036024;28;20108;-71
2023/06/28 08:12:25;;;;;;;6.90;2.45;;;17.60;99.90;;;;;;5033992;28;20457;-71
2023/06/28 08:14:50;;;;;;;8.93;2.60;;;17.60;99.90;;;;;;5033754;28;20420;-71
2023/06/28 08:17:16;;;;;;;7.35;2.55;;;17.70;99.90;;;;;;5035144;28;20049;-71
2023/06/28 08:19:41;;;;;;;7.32;2.25;;;17.70;99.90;;;;;;5035754;28;20389;-71
2023/06/28 08:22:07;;;;;;;8.43;2.50;;;17.80;99.90;;;;;;5033896;28;20021;-71
2023/06/28 08:24:33;;;;;;;5.90;3.03;;;17.80;99.90;;;;;;5032814;28;20018;-71
2023/06/28 08:26:58;;;;;;;7.85;2.78;;;17.90;99.90;;;;;;5035813;28;20021;-71
2023/06/28 08:29:24;;;;;;;9.55;2.33;;;17.80;99.90;;;;;;5035778;28;20071;-71
2023/06/28 08:31:50;;;;;;;10.65;2.88;;;17.90;99.90;;;;;;5034717;28;20034;-71
2023/06/28 08:34:16;;;;;;;7.80;2.42;;;18.00;99.90;;;;;;5035571;28;20107;-71
2023/06/28 08:36:42;;;;;;;3.85;2.13;;;18.10;99.90;;;;;;5035691;28;20037;-71
2023/06/28 08:39:07;;;;;;;10.07;2.45;;;18.10;99.90;;;;;;5035467;28;20028;-71
2023/06/28 08:41:34;;;;;;;6.32;2.60;;;18.20;99.90;;;;;;5034227;28;20049;-71
2023/06/28 08:44:02;;;;;;;7.80;2.08;;;18.20;99.90;;;;;;5035336;28;20030;-71
2023/06/28 08:46:29;;;;;;;8.93;2.33;;;18.30;99.90;;;;;;5035414;28;20018;-71
2023/06/28 08:48:55;;;;;;;8.20;3.03;;;18.40;99.90;;;;;;5034417;28;20539;-71
2023/06/28 08:51:21;;;;;;;6.25;2.08;;;18.50;99.90;;;;;;5034204;28;20021;-71
2023/06/28 08:53:48;;;;;;;6.85;2.35;;;18.60;99.90;;;;;;5035626;28;20040;-71
2023/06/28 08:56:15;;;;;;;4.18;2.28;;;18.60;99.90;;;;;;5034739;28;20026;-71
2023/06/28 08:58:41;;;;;;;5.35;1.85;;;18.70;99.90;;;;;;5035275;28;20465;-71
2023/06/28 09:01:11;;;;;;;8.50;2.72;;;18.80;99.90;;;;;;5034029;28;20099;-71
2023/06/28 09:03:40;;;;;;;7.53;2.00;;;18.80;99.90;;;;;;5040145;28;20025;-71
2023/06/28 09:06:06;;;;;;;5.60;2.85;;;18.90;99.90;;;;;;5046914;28;20029;-71
2023/06/28 09:08:33;;;;;;;7.57;3.15;;;19.00;99.90;;;;;;5035595;28;20032;-71
2023/06/28 09:11:00;;;;;;;8.98;2.78;;;19.20;99.90;;;;;;5031851;28;20026;-70
2023/06/28 09:13:27;;;;;;;6.97;2.40;;;19.40;99.90;;;;;;5032482;28;20033;-70
2023/06/28 09:15:53;;;;;;;6.95;2.00;;;19.40;99.90;;;;;;5034831;28;20117;-71
2023/06/28 09:18:19;;;;;;;7.72;2.22;;;19.40;99.90;;;;;;5030637;28;20018;-71
2023/06/28 09:20:55;;;;;;;6.40;2.33;;;19.40;99.90;;;;;;5021974;28;20111;-71
2023/06/28 09:23:28;;;;;;;6.60;3.08;;;19.50;99.90;;;;;;5033654;28;20112;-70
2023/06/28 09:25:54;;;;;;;9.75;2.13;;;19.70;99.90;;;;;;5033348;28;20033;-71
2023/06/28 09:28:23;;;;;;;8.82;3.05;;;19.80;99.90;;;;;;5033793;28;20151;-71
2023/06/28 09:30:52;;;;;;;;;;;19.80;99.90;;;;;;5034928;28;20029;-70
2023/06/28 09:33:21;;;;;;;8.57;2.45;;;19.90;99.90;;;;;;5033169;28;19905;-71
2023/06/28 09:35:47;;;;;;;7.90;2.40;;;20.00;99.90;;;;;;5030536;28;20051;-71
2023/06/28 09:38:13;;;;;;;4.15;1.67;;;20.20;99.90;;;;;;5033526;28;20477;-71
2023/06/28 09:40:39;;;;;;;10.45;2.60;;;20.20;99.90;;;;;;5033329;28;20033;-71
2023/06/28 09:43:04;;;;;;;8.43;3.38;;;20.30;99.90;;;;;;5033395;28;20108;-71
2023/06/28 09:45:33;;;;;;;9.00;2.58;;;20.40;99.90;;;;;;5034846;28;20045;-71
2023/06/28 09:47:59;;;;;;;;;;;20.40;99.90;;;;;;5034748;28;20021;-71
2023/06/28 09:50:45;;;;;;;7.97;2.53;;;20.50;99.90;;;;;;5031584;28;20372;-70
2023/06/28 09:53:11;;;;;;;4.88;1.52;;;20.60;99.90;;;;;;5033391;28;20029;-70
2023/06/28 09:55:39;;;;;;;6.43;2.92;;;20.80;99.90;;;;;;5034045;28;20022;-70
2023/06/28 09:58:10;;;;;;;5.50;2.05;;;21.00;99.90;;;;;;5028359;28;20070;-71
2023/06/28 10:00:41;;;;;;;8.38;2.67;;;21.20;99.90;;;;;;5033040;28;20029;-71
2023/06/28 10:03:08;;;;;;;7.15;2.78;;;21.30;99.90;;;;;;5032150;28;20398;-71
2023/06/28 10:05:36;;;;;;;11.18;3.70;;;21.30;99.90;;;;;;5031061;28;20477;-70
2023/06/28 10:08:07;;;;;;;8.25;2.65;;;21.50;99.90;;;;;;5031141;28;20028;-71
2023/06/28 10:10:37;;;;;;;11.50;3.25;;;21.60;99.90;;;;;;5031339;28;20496;-71
2023/06/28 10:13:05;;;;;;;7.18;2.58;;;21.80;99.90;;;;;;5033534;28;20051;-71
2023/06/28 10:15:35;;;;;;;;;;;21.90;99.90;;;;;;5034164;28;20025;-71
2023/06/28 10:18:01;;;;;;;6.30;2.75;;;22.10;99.90;;;;;;5031964;28;19909;-71
2023/06/28 10:20:27;;;;;;;8.20;2.28;;;22.50;99.90;;;;;;5033108;28;20033;-71
2023/06/28 10:22:54;;;;;;;7.30;2.97;;;22.70;99.90;;;;;;5030191;28;20045;-70
2023/06/28 10:25:22;;;;;;;5.97;2.05;;;22.70;99.90;;;;;;5031610;28;20047;-71
2023/06/28 10:27:49;;;;;;;6.18;2.75;;;22.80;99.90;;;;;;5033473;28;20017;-71
2023/06/28 10:30:15;;;;;;;16.50;3.53;;;22.90;99.90;;;;;;5033615;28;20541;-71
2023/06/28 10:32:43;;;;;;;7.43;2.92;;;22.90;99.90;;;;;;5031511;28;20113;-71
2023/06/28 10:35:10;;;;;;;9.32;3.50;;;22.90;99.90;;;;;;5031431;28;20021;-70
2023/06/28 10:37:36;;;;;;;10.85;2.38;;;22.80;99.90;;;;;;5030321;28;20116;-72
2023/06/28 10:40:04;;;;;;;8.43;2.88;;;22.80;99.90;;;;;;5032031;28;20511;-72
2023/06/28 10:42:40;;;;;;;11.38;3.63;;;22.80;99.90;;;;;;5031897;28;20049;-72
2023/06/28 10:45:08;;;;;;;9.10;3.55;;;22.70;99.90;;;;;;5027271;28;20037;-72
2023/06/28 10:47:35;;;;;;;10.07;3.83;;;22.70;99.90;;;;;;5013650;28;20022;-72
2023/06/28 10:50:16;;;;;;;13.65;4.20;;;22.70;99.90;;;;;;5013635;28;20029;-70
2023/06/28 10:52:46;;;;;;;8.60;3.22;;;22.70;99.90;;;;;;5016188;28;20029;-70
2023/06/28 10:55:12;;;;;;;11.32;4.53;;;23.00;99.90;;;;;;5026929;28;20057;-72
2023/06/28 10:57:41;;;;;;;15.18;5.20;;;23.30;99.90;;;;;;5033154;28;20033;-72
2023/06/28 11:00:42;;;;;;;12.82;4.53;;;23.20;99.90;;;;;;5033217;28;20029;-72
2023/06/28 11:03:08;;;;;;;9.65;4.53;;;23.20;99.90;;;;;;5032310;28;20400;-72
2023/06/28 11:05:39;;;;;;;12.88;5.05;;;23.20;99.90;;;;;;5032173;28;20021;-72
2023/06/28 11:08:12;;;;;;;11.05;4.63;;;23.30;99.90;;;;;;5032108;28;20029;-72
2023/06/28 11:10:40;;;;;;;18.38;5.70;;;23.30;99.90;;;;;;5030949;28;20108;-72
2023/06/28 11:13:13;;;;;;;11.77;5.57;;;23.30;99.90;;;;;;5029864;28;20037;-70
2023/06/28 11:15:45;;;;;;;10.18;5.50;;;23.20;99.90;;;;;;5033135;28;20025;-72
2023/06/28 11:18:16;;;;;;;15.00;6.22;;;23.60;99.90;;;;;;5030728;28;20018;-72
2023/06/28 11:20:58;;;;;;;13.15;5.40;;;23.80;99.90;;;;;;5035561;28;20049;-72
2023/06/28 11:23:29;;;;;;;10.85;5.30;;;23.90;99.90;;;;;;5035343;28;20023;-72
2023/06/28 11:26:00;;;;;;;14.63;6.30;;;23.90;99.90;;;;;;5035411;28;20120;-71
2023/06/28 11:28:46;;;;;;;11.32;5.00;;;23.90;99.90;;;;;;5036829;28;20405;-72
2023/06/28 11:31:14;;;;;;;10.93;5.53;;;23.90;99.90;;;;;;5034232;28;20079;-72
2023/06/28 11:33:41;;;;;;;11.48;5.80;;;23.90;99.90;;;;;;5030025;28;20037;-72
2023/06/28 11:36:08;;;;;;;12.85;5.68;;;23.60;99.90;;;;;;5025238;28;20025;-72
2023/06/28 11:38:35;;;;;;;12.65;5.50;;;23.30;99.90;;;;;;5035107;28;20079;-72
2023/06/28 11:41:01;;;;;;;13.40;6.20;;;23.30;99.90;;;;;;5036731;28;20041;-72
2023/06/28 11:43:26;;;;;;;12.07;6.00;;;23.20;99.90;;;;;;5036557;28;20064;-72
2023/06/28 11:45:53;;;;;;;16.60;6.57;;;23.20;99.90;;;;;;5037314;28;20484;-72
2023/06/28 11:48:20;;;;;;;14.65;6.32;;;23.40;99.90;;;;;;5035460;28;20477;-72
2023/06/28 11:50:58;;;;;;;12.55;6.25;;;23.50;99.90;;;;;;5033952;28;20042;-72
2023/06/28 11:53:29;;;;;;;13.45;5.13;;;23.80;99.90;;;;;;5036514;28;20026;-72
2023/06/28 11:55:55;;;;;;;13.13;5.65;;;24.00;99.90;;;;;;5034661;28;20037;-71
2023/06/28 11:58:35;;;;;;;15.57;6.32;;;24.10;99.90;;;;;;5029109;28;20485;-73
2023/06/28 12:01:02;;;;;;;15.20;6.70;;;24.30;99.90;;;;;;5034530;28;20033;-71
2023/06/28 12:03:34;;;;;;;15.32;6.43;;;24.20;99.90;;;;;;5035928;28;20535;-72
2023/06/28 12:06:02;;;;;;;14.80;6.60;;;24.10;99.90;;;;;;5035053;28;20052;-72
2023/06/28 12:08:35;;;;;;;13.15;5.78;;;23.90;99.90;;;;;;5036566;28;20469;-73
2023/06/28 12:11:06;;;;;;;14.23;6.28;;;23.60;99.90;;;;;;5034902;28;20041;-72
2023/06/28 12:13:32;;;;;;;13.88;6.53;;;23.30;99.90;;;;;;5035859;28;20034;-72
2023/06/28 12:16:09;;;;;;;17.80;6.78;;;23.00;99.90;;;;;;5036478;28;20029;-73
2023/06/28 12:19:01;;;;;;;12.80;6.13;;;22.70;99.90;;;;;;5035596;28;20446;-72
2023/06/28 12:21:32;;;;;;;17.52;7.38;;;22.40;99.90;;;;;;5028961;28;20021;-72
2023/06/28 12:24:31;;;;;;;13.00;7.20;;;22.20;99.90;;;;;;5036093;28;20136;-72
2023/06/28 12:26:58;;;;;;;15.35;7.13;;;21.90;99.90;;;;;;4994139;28;20066;-74
2023/06/28 12:29:27;;;;;;;13.07;6.85;;;21.70;99.90;;;;;;5015003;28;20030;-76
2023/06/28 12:31:53;;;;;;;;;;;21.50;99.90;;;;;;5015816;28;20021;-77
2023/06/28 12:34:26;;;;;;;17.58;6.68;;;21.50;99.90;;;;;;5018156;28;19909;-74
2023/06/28 12:36:58;;;;;;;14.10;5.78;;;21.50;99.90;;;;;;5025865;28;20041;-74
2023/06/28 12:39:42;;;;;;;9.32;5.07;;;21.50;99.90;;;;;;5035886;28;20036;-74
2023/06/28 12:42:21;;;;;;;17.08;6.40;;;21.30;99.90;;;;;;5035633;28;20045;-74
2023/06/28 12:44:51;;;;;;;;;;;21.30;99.90;;;;;;5036156;28;20022;-74
2023/06/28 12:47:21;;;;;;;17.23;6.90;;;21.40;99.90;;;;;;5035675;28;19905;-74
2023/06/28 12:49:47;;;;;;;14.77;7.07;;;21.50;99.90;;;;;;5035566;28;20028;-74